Relevés horaires St-Hubert (Belgique)


Relevés horaires à St-Hubert - Vendredi 24 Juill. 2020
Heure UTC1 Température [°C] Vent [km/h] Hum. [%] Pres.4 [hPa] Visi. [Km] Nébu. [octa] Préc.5 [mm] Cond.
2m. Res. Ros. Dir.2 Vit. Moy. Raf.3
23:00 12.2 12.2 11.3 SO 1.9 1.9 3.7 94 1015.6(0.2/3h) 15 0/8 -- --
22:00 13.7 13.7 12.6 O 1.9 1.9 3.7 93 1015.3(0.5/3h) 13 5/8 -- --
21:00 13.6 13.6 12.1 ONO 1.9 9.3 13.0 91 1015.3(0.7/3h) 23 5/8 -- --
20:00 15.0 15.0 13.1 ONO 1.9 3.7 3.7 88 1014.7(0.6/3h) 30 8/8 -- --
19:00 15.7 15.7 13.8 N 3.7 9.3 13.0 88 1014.3(0.0/3h) 40 8/8 -- Ciel clair
18:00 17.0 17.0 12.9 OSO 5.6 11.1 18.5 77 1013.8(0.0/3h) 45 0/8 0/12h
--
17:00 17.8 17.8 12.9 OSO 3.7 7.4 13.0 73 1013.5(0.0/3h) 30 7/8 -- --
16:00 16.4 16.4 12.5 O 7.4 11.1 18.5 78 1014.2(-0.2/3h) 45 7/8 -- --
15:00 17.8 17.8 12.6 NO 11.1 11.1 18.5 72 1013.7(0.2/3h) 30 6/8 -- --
14:00 19.0 19.0 12.5 O 7.4 7.4 13.0 66 1013.3(0.0/3h) 40 5/8 -- --
13:00 18.6 18.6 12.4 ONO 7.4 9.3 14.8 67 1013.5(0.3/3h) 35 7/8 -- --
12:00 18.2 18.2 12.7 ONO 7.4 9.3 14.8 70 1013.7(0.6/3h) 35 8/8 0/6h
--
11:00 18.4 18.4 12.4 O 7.4 9.3 14.8 68 1013.4(0.5/3h) 35 7/8 -- --
10:00 18.5 18.5 12.0 O 7.4 7.4 13.0 66 1013.3(0.4/3h) 40 2/8 -- --
09:00 17.4 17.4 10.3 O 7.4 7.4 11.1 63 1013.3(0.4/3h) 30 1/8 -- --
08:00 15.2 15.2 8.2 SO 3.7 3.7 7.4 63 1013.7(0.5/3h) 40 4/8 -- --
07:00 14.0 14.0 6.7 OSO 3.7 3.7 5.6 61 1013.9(0.4/3h) 45 7/8 -- --
06:00 13.2 13.2 6.7 O 3.7 3.7 5.6 65 1014(-0.2/3h) 45 7/8 0/12h
--
05:00 13.5 13.5 7.1 O 3.7 3.7 5.6 65 1013.6(-0.4/3h) 45 0/8 -- --
04:00 13.7 13.7 7.8 O 3.7 3.7 5.6 68 1013.5(-0.6/3h) 45 8/8 -- --
03:00 14.0 14.0 7.7 O 1.9 3.7 5.6 66 1013.6(-0.9/3h) 45 0/8 -- --
02:00 14.2 14.2 7.2 OSO 1.9 3.7 3.7 63 1013.8(-0.8/3h) 45 0/8 -- --
01:00 15.0 15.0 6.1 NO 1.9 3.7 5.6 55 1013.9(-0.9/3h) 45 0/8 -- --
00:00 15.6 15.6 6.9 NO 3.7 3.7 5.6 56 1014.2(-0.8/3h) 45 0/8 0/6h
0/24h
Ciel clair

1 Coordinated Universal Time. Actuellement il est 09:00 locale et 07:00 UTC.

2 Le vent souffle depuis la direction indiquée vers la direction oposée.

3 Les rafales max. sont disponible 40 min après l'heure du relevé.

4 Pour les stations d'altitude (plus de 600m) le géopotentiel du niveau le plus proche de la pression obligatoire est indiqué.

5 Les stations disposant d'un diffuseur peuvent indiquer "trace". Cela signifie que des précipitations ont touchés le sol mais que la quantité est inférieure à 0.1 mm.

Récapitulatif de la journée
Température [°C] Vent [km/h] Ensoleillement4 [h] Precipitations totale5 [mm] Pression [Hpa]
Min1 Max.2 Moy.3 Max. Min Max.
13.1 20.5 6.3 18.5 0 h 0 min 0 1013.3 1015.6

1 Température minimale relevée entre 18:00 UTC la veille et 18:00 UTC le jour donné.

2 Température maximale relevée entre 06:00 UTC le jour donné et 06:00 UTC le lendemain.

3 Vent moyen de la journée basé sur les relevés horaires.

4 Ensoleillement en heures relevé entre 06:00 UTC la veille et 06:00 UTC le jour donné.

5 Précipitations totales tombées entre 06:00 UTC la jour donné et 06:00 UTC le lendemain.

Graphiques horaires